sensor_id;sensor_type;location;lat;lon;timestamp;pressure;altitude;pressure_sealevel;temperature;humidity
47710;BME280;33473;51.640;5.892;2022-12-07T00:04:11;101700;;;9.4;57.0
47710;BME280;33473;51.640;5.892;2022-12-07T00:17:31;101700;;;9.8;57.0
47710;BME280;33473;51.640;5.892;2022-12-07T00:30:51;101600;;;9.7;57.0
47710;BME280;33473;51.640;5.892;2022-12-07T00:44:10;101600;;;9.3;56.0
47710;BME280;33473;51.640;5.892;2022-12-07T00:57:30;101600;;;9.1;58.0
47710;BME280;33473;51.640;5.892;2022-12-07T01:10:50;101600;;;9.1;58.0
47710;BME280;33473;51.640;5.892;2022-12-07T01:24:09;101600;;;9.1;58.0
47710;BME280;33473;51.640;5.892;2022-12-07T01:37:29;101600;;;9.2;58.0
47710;BME280;33473;51.640;5.892;2022-12-07T01:50:49;101600;;;8.9;59.0
47710;BME280;33473;51.640;5.892;2022-12-07T02:04:08;101600;;;9.0;58.0
47710;BME280;33473;51.640;5.892;2022-12-07T02:17:28;101600;;;9.1;57.0
47710;BME280;33473;51.640;5.892;2022-12-07T02:30:48;101600;;;8.7;57.0
47710;BME280;33473;51.640;5.892;2022-12-07T02:44:07;101600;;;8.6;58.0
47710;BME280;33473;51.640;5.892;2022-12-07T02:57:27;101600;;;8.6;57.0
47710;BME280;33473;51.640;5.892;2022-12-07T03:10:47;101600;;;8.3;57.0
47710;BME280;33473;51.640;5.892;2022-12-07T03:24:06;101600;;;8.3;57.0
47710;BME280;33473;51.640;5.892;2022-12-07T03:37:26;101600;;;8.3;57.0
47710;BME280;33473;51.640;5.892;2022-12-07T03:50:46;101600;;;8.6;56.0
47710;BME280;33473;51.640;5.892;2022-12-07T04:04:05;101600;;;8.6;56.0
47710;BME280;33473;51.640;5.892;2022-12-07T04:17:25;101600;;;8.7;57.0
47710;BME280;33473;51.640;5.892;2022-12-07T04:30:45;101600;;;9.0;57.0
47710;BME280;33473;51.640;5.892;2022-12-07T04:44:04;101600;;;8.6;58.0
47710;BME280;33473;51.640;5.892;2022-12-07T04:57:24;101600;;;9.2;57.0
47710;BME280;33473;51.640;5.892;2022-12-07T05:10:44;101600;;;9.2;57.0
47710;BME280;33473;51.640;5.892;2022-12-07T05:24:03;101600;;;9.1;56.0
47710;BME280;33473;51.640;5.892;2022-12-07T05:37:23;101600;;;9.1;56.0
47710;BME280;33473;51.640;5.892;2022-12-07T05:50:43;101600;;;8.8;55.0
47710;BME280;33473;51.640;5.892;2022-12-07T06:04:02;101600;;;8.9;55.0
47710;BME280;33473;51.640;5.892;2022-12-07T06:17:22;101600;;;8.7;55.0
47710;BME280;33473;51.640;5.892;2022-12-07T06:30:42;101600;;;8.7;56.0
47710;BME280;33473;51.640;5.892;2022-12-07T06:44:01;101600;;;9.0;56.0
47710;BME280;33473;51.640;5.892;2022-12-07T06:57:21;101600;;;8.9;55.0
47710;BME280;33473;51.640;5.892;2022-12-07T07:10:41;101600;;;8.7;54.0
47710;BME280;33473;51.640;5.892;2022-12-07T07:24:00;101600;;;8.3;54.0
47710;BME280;33473;51.640;5.892;2022-12-07T07:37:20;101600;;;8.3;55.0
47710;BME280;33473;51.640;5.892;2022-12-07T07:50:40;101600;;;8.3;56.0
47710;BME280;33473;51.640;5.892;2022-12-07T08:03:59;101600;;;8.3;56.0
47710;BME280;33473;51.640;5.892;2022-12-07T08:17:19;101600;;;8.4;56.0
47710;BME280;33473;51.640;5.892;2022-12-07T08:30:39;101600;;;8.4;57.0
47710;BME280;33473;51.640;5.892;2022-12-07T08:43:58;101600;;;8.6;56.0
47710;BME280;33473;51.640;5.892;2022-12-07T08:57:18;101600;;;8.9;56.0
47710;BME280;33473;51.640;5.892;2022-12-07T09:10:38;101600;;;9.2;56.0
47710;BME280;33473;51.640;5.892;2022-12-07T09:23:57;101600;;;9.3;56.0
47710;BME280;33473;51.640;5.892;2022-12-07T09:37:17;101600;;;9.7;57.0
47710;BME280;33473;51.640;5.892;2022-12-07T09:50:37;101600;;;10.2;57.0
47710;BME280;33473;51.640;5.892;2022-12-07T10:03:56;101600;;;10.3;56.0
47710;BME280;33473;51.640;5.892;2022-12-07T10:17:16;101600;;;10.7;56.0
47710;BME280;33473;51.640;5.892;2022-12-07T10:30:36;101600;;;11.3;55.0
47710;BME280;33473;51.640;5.892;2022-12-07T10:43:55;101600;;;10.6;56.0
47710;BME280;33473;51.640;5.892;2022-12-07T10:57:15;101600;;;11.4;55.0
47710;BME280;33473;51.640;5.892;2022-12-07T11:10:35;101500;;;11.6;53.0
47710;BME280;33473;51.640;5.892;2022-12-07T11:23:54;101500;;;11.8;53.0
47710;BME280;33473;51.640;5.892;2022-12-07T11:37:14;101500;;;11.8;53.0
47710;BME280;33473;51.640;5.892;2022-12-07T11:50:34;101500;;;11.8;52.0
47710;BME280;33473;51.640;5.892;2022-12-07T12:03:53;101500;;;12.0;52.0
47710;BME280;33473;51.640;5.892;2022-12-07T12:17:13;101500;;;12.2;51.0
47710;BME280;33473;51.640;5.892;2022-12-07T12:30:33;101500;;;11.7;51.0
47710;BME280;33473;51.640;5.892;2022-12-07T12:43:53;101500;;;11.5;52.0
47710;BME280;33473;51.640;5.892;2022-12-07T12:57:12;101500;;;11.5;53.0
47710;BME280;33473;51.640;5.892;2022-12-07T13:10:32;101500;;;11.1;53.0
47710;BME280;33473;51.640;5.892;2022-12-07T13:23:52;101400;;;11.0;53.0
47710;BME280;33473;51.640;5.892;2022-12-07T13:37:11;101400;;;11.3;51.0
47710;BME280;33473;51.640;5.892;2022-12-07T13:50:31;101400;;;11.6;49.0
47710;BME280;33473;51.640;5.892;2022-12-07T14:03:51;101400;;;11.6;49.0
47710;BME280;33473;51.640;5.892;2022-12-07T14:17:10;101400;;;11.5;49.0
47710;BME280;33473;51.640;5.892;2022-12-07T14:30:30;101400;;;11.6;49.0
47710;BME280;33473;51.640;5.892;2022-12-07T14:43:50;101400;;;11.7;49.0
47710;BME280;33473;51.640;5.892;2022-12-07T14:57:09;101400;;;11.5;50.0
47710;BME280;33473;51.640;5.892;2022-12-07T15:10:29;101400;;;10.8;53.0
47710;BME280;33473;51.640;5.892;2022-12-07T15:23:49;101400;;;10.5;52.0
47710;BME280;33473;51.640;5.892;2022-12-07T15:37:08;101400;;;10.5;53.0
47710;BME280;33473;51.640;5.892;2022-12-07T15:50:28;101300;;;10.5;52.0
47710;BME280;33473;51.640;5.892;2022-12-07T16:03:48;101300;;;10.4;52.0
47710;BME280;33473;51.640;5.892;2022-12-07T16:17:07;101300;;;10.2;52.0
47710;BME280;33473;51.640;5.892;2022-12-07T16:30:27;101300;;;10.1;52.0
47710;BME280;33473;51.640;5.892;2022-12-07T16:43:47;101300;;;10.1;52.0
47710;BME280;33473;51.640;5.892;2022-12-07T16:57:07;101300;;;9.8;54.0
47710;BME280;33473;51.640;5.892;2022-12-07T17:10:26;101300;;;9.6;55.0
47710;BME280;33473;51.640;5.892;2022-12-07T17:23:46;101300;;;9.9;55.0
47710;BME280;33473;51.640;5.892;2022-12-07T17:37:06;101300;;;9.9;56.0
47710;BME280;33473;51.640;5.892;2022-12-07T17:50:25;101300;;;9.9;56.0
47710;BME280;33473;51.640;5.892;2022-12-07T18:03:45;101200;;;9.7;56.0
47710;BME280;33473;51.640;5.892;2022-12-07T18:17:05;101200;;;9.9;56.0
47710;BME280;33473;51.640;5.892;2022-12-07T18:30:24;101200;;;9.9;56.0
47710;BME280;33473;51.640;5.892;2022-12-07T18:43:44;101200;;;9.9;56.0
47710;BME280;33473;51.640;5.892;2022-12-07T18:57:04;101200;;;10.0;55.0
47710;BME280;33473;51.640;5.892;2022-12-07T19:10:23;101200;;;10.1;55.0
47710;BME280;33473;51.640;5.892;2022-12-07T19:23:43;101200;;;9.9;55.0
47710;BME280;33473;51.640;5.892;2022-12-07T19:37:03;101200;;;10.0;55.0
47710;BME280;33473;51.640;5.892;2022-12-07T19:50:22;101200;;;10.0;55.0
47710;BME280;33473;51.640;5.892;2022-12-07T20:03:42;101200;;;9.9;56.0
47710;BME280;33473;51.640;5.892;2022-12-07T20:17:02;101200;;;10.3;55.0
47710;BME280;33473;51.640;5.892;2022-12-07T20:30:21;101200;;;10.5;54.0
47710;BME280;33473;51.640;5.892;2022-12-07T20:43:41;101100;;;10.3;55.0
47710;BME280;33473;51.640;5.892;2022-12-07T20:57:00;101100;;;10.2;55.0
47710;BME280;33473;51.640;5.892;2022-12-07T21:10:20;101100;;;10.0;55.0
47710;BME280;33473;51.640;5.892;2022-12-07T21:23:40;101100;;;10.1;55.0
47710;BME280;33473;51.640;5.892;2022-12-07T21:36:59;101100;;;9.8;55.0
47710;BME280;33473;51.640;5.892;2022-12-07T21:50:19;101100;;;9.8;55.0
47710;BME280;33473;51.640;5.892;2022-12-07T22:03:39;101100;;;9.5;56.0
47710;BME280;33473;51.640;5.892;2022-12-07T22:16:59;101100;;;9.5;56.0
47710;BME280;33473;51.640;5.892;2022-12-07T22:30:18;101100;;;9.7;56.0
47710;BME280;33473;51.640;5.892;2022-12-07T22:43:38;101100;;;9.4;56.0
47710;BME280;33473;51.640;5.892;2022-12-07T22:56:58;101000;;;9.4;57.0
47710;BME280;33473;51.640;5.892;2022-12-07T23:10:17;101000;;;9.4;56.0
47710;BME280;33473;51.640;5.892;2022-12-07T23:23:37;101000;;;9.4;56.0
47710;BME280;33473;51.640;5.892;2022-12-07T23:36:57;101000;;;9.3;56.0
47710;BME280;33473;51.640;5.892;2022-12-07T23:50:16;101000;;;9.3;56.0
